Rock Creek, Ohio
Current Conditions -  °F | °C
As of 7:53 PM on Saturday 22 Nov 2014 (Local Time) from KHZY Reporting Station
Overcast Overcast  
Wind Chill:   Ceiling: 4100
Heat Index:   Visibility: 10mi
Dew Point:   Wind: 13mph
Humidity: 73%   Direction: 190°S
Pressure: 30.05"   Gusts: NA
Location:  41.66°N, 80.86°W
Report Text: KHZY 230053Z AUTO 19011KT 10SM BKN041 BKN055 OVC070 05/01 A3005 RMK AO2 RAB16E43 SLP182 P0000 T00500006
Loading
Personal Weather Stations






























Interactive Weather Map New forecast layout! Learn more

10-Day Weather Forecast

Advertisements
Track Severe Weather on mobile